sensor_id;sensor_type;location;lat;lon;timestamp;temperature;humidity
29173;DHT22;16223;47.966;-1.616;2022-11-20T00:00:48;6.5;94
29173;DHT22;16223;47.966;-1.616;2022-11-20T00:01:48;6.5;94
29173;DHT22;16223;47.966;-1.616;2022-11-20T00:02:49;6.5;94
29173;DHT22;16223;47.966;-1.616;2022-11-20T00:03:50;6.5;94
29173;DHT22;16223;47.966;-1.616;2022-11-20T00:04:48;6.5;94
29173;DHT22;16223;47.966;-1.616;2022-11-20T00:05:49;6.5;94
29173;DHT22;16223;47.966;-1.616;2022-11-20T00:06:49;6.5;94
29173;DHT22;16223;47.966;-1.616;2022-11-20T00:07:49;6.5;94
29173;DHT22;16223;47.966;-1.616;2022-11-20T00:08:49;6.5;94
29173;DHT22;16223;47.966;-1.616;2022-11-20T00:09:48;6.5;94
29173;DHT22;16223;47.966;-1.616;2022-11-20T00:10:48;6.5;94
29173;DHT22;16223;47.966;-1.616;2022-11-20T00:11:48;6.5;94
29173;DHT22;16223;47.966;-1.616;2022-11-20T00:12:48;6.5;94
29173;DHT22;16223;47.966;-1.616;2022-11-20T00:13:51;6.5;94
29173;DHT22;16223;47.966;-1.616;2022-11-20T00:14:48;6.5;94
29173;DHT22;16223;47.966;-1.616;2022-11-20T00:15:48;6.5;94
29173;DHT22;16223;47.966;-1.616;2022-11-20T00:16:48;6.5;94
29173;DHT22;16223;47.966;-1.616;2022-11-20T00:17:49;6.5;94
29173;DHT22;16223;47.966;-1.616;2022-11-20T00:18:49;6.5;94
29173;DHT22;16223;47.966;-1.616;2022-11-20T00:19:49;6.5;94
29173;DHT22;16223;47.966;-1.616;2022-11-20T00:20:48;6.5;94
29173;DHT22;16223;47.966;-1.616;2022-11-20T00:21:48;6.5;94
29173;DHT22;16223;47.966;-1.616;2022-11-20T00:22:49;6.5;94
29173;DHT22;16223;47.966;-1.616;2022-11-20T00:23:50;6.5;94
29173;DHT22;16223;47.966;-1.616;2022-11-20T00:24:48;6.5;94
29173;DHT22;16223;47.966;-1.616;2022-11-20T00:25:49;6.5;94
29173;DHT22;16223;47.966;-1.616;2022-11-20T00:26:49;6.5;94
29173;DHT22;16223;47.966;-1.616;2022-11-20T00:27:48;6.5;94
29173;DHT22;16223;47.966;-1.616;2022-11-20T00:28:53;6.5;94
29173;DHT22;16223;47.966;-1.616;2022-11-20T00:29:49;6.5;94
29173;DHT22;16223;47.966;-1.616;2022-11-20T00:30:48;6.5;94
29173;DHT22;16223;47.966;-1.616;2022-11-20T00:31:48;6.5;94
29173;DHT22;16223;47.966;-1.616;2022-11-20T00:32:49;6.5;94
29173;DHT22;16223;47.966;-1.616;2022-11-20T00:33:48;6.5;94
29173;DHT22;16223;47.966;-1.616;2022-11-20T00:34:48;6.5;94
29173;DHT22;16223;47.966;-1.616;2022-11-20T00:35:48;6.5;94
29173;DHT22;16223;47.966;-1.616;2022-11-20T00:36:47;6.5;94
29173;DHT22;16223;47.966;-1.616;2022-11-20T00:37:49;6.5;94
29173;DHT22;16223;47.966;-1.616;2022-11-20T00:38:50;6.5;94
29173;DHT22;16223;47.966;-1.616;2022-11-20T00:39:49;6.5;94
29173;DHT22;16223;47.966;-1.616;2022-11-20T00:40:54;6.5;94
29173;DHT22;16223;47.966;-1.616;2022-11-20T00:41:48;6.5;94
29173;DHT22;16223;47.966;-1.616;2022-11-20T00:42:47;6.5;94
29173;DHT22;16223;47.966;-1.616;2022-11-20T00:43:48;6.5;94
29173;DHT22;16223;47.966;-1.616;2022-11-20T00:44:48;6.5;94
29173;DHT22;16223;47.966;-1.616;2022-11-20T00:45:49;6.5;94
29173;DHT22;16223;47.966;-1.616;2022-11-20T00:46:48;6.5;94
29173;DHT22;16223;47.966;-1.616;2022-11-20T00:47:48;6.5;94
29173;DHT22;16223;47.966;-1.616;2022-11-20T00:48:48;6.5;94
29173;DHT22;16223;47.966;-1.616;2022-11-20T00:49:48;6.5;94
29173;DHT22;16223;47.966;-1.616;2022-11-20T00:50:48;6.5;94
29173;DHT22;16223;47.966;-1.616;2022-11-20T00:51:48;6.7;95
29173;DHT22;16223;47.966;-1.616;2022-11-20T00:52:48;6.7;95
29173;DHT22;16223;47.966;-1.616;2022-11-20T00:53:49;6.7;95
29173;DHT22;16223;47.966;-1.616;2022-11-20T00:54:48;6.7;95
29173;DHT22;16223;47.966;-1.616;2022-11-20T00:55:54;6.7;95
29173;DHT22;16223;47.966;-1.616;2022-11-20T00:56:48;6.7;95
29173;DHT22;16223;47.966;-1.616;2022-11-20T00:57:48;6.7;95
29173;DHT22;16223;47.966;-1.616;2022-11-20T00:58:49;6.7;95
29173;DHT22;16223;47.966;-1.616;2022-11-20T00:59:48;6.7;95
29173;DHT22;16223;47.966;-1.616;2022-11-20T01:00:48;6.7;95
29173;DHT22;16223;47.966;-1.616;2022-11-20T01:01:48;6.7;95
29173;DHT22;16223;47.966;-1.616;2022-11-20T01:02:48;6.7;95
29173;DHT22;16223;47.966;-1.616;2022-11-20T01:03:50;6.7;95
29173;DHT22;16223;47.966;-1.616;2022-11-20T01:04:48;6.7;95
29173;DHT22;16223;47.966;-1.616;2022-11-20T01:05:48;6.7;95
29173;DHT22;16223;47.966;-1.616;2022-11-20T01:06:48;6.7;95
29173;DHT22;16223;47.966;-1.616;2022-11-20T01:07:48;6.7;95
29173;DHT22;16223;47.966;-1.616;2022-11-20T01:08:49;6.7;95
29173;DHT22;16223;47.966;-1.616;2022-11-20T01:09:48;6.7;95
29173;DHT22;16223;47.966;-1.616;2022-11-20T01:10:48;6.7;95
29173;DHT22;16223;47.966;-1.616;2022-11-20T01:11:48;6.7;95
29173;DHT22;16223;47.966;-1.616;2022-11-20T01:12:48;6.7;95
29173;DHT22;16223;47.966;-1.616;2022-11-20T01:13:50;6.7;95
29173;DHT22;16223;47.966;-1.616;2022-11-20T01:14:49;6.7;95
29173;DHT22;16223;47.966;-1.616;2022-11-20T01:15:48;6.7;95
29173;DHT22;16223;47.966;-1.616;2022-11-20T01:16:49;6.7;95
29173;DHT22;16223;47.966;-1.616;2022-11-20T01:17:49;6.7;95
29173;DHT22;16223;47.966;-1.616;2022-11-20T01:18:50;6.7;95
29173;DHT22;16223;47.966;-1.616;2022-11-20T01:19:49;6.7;95
29173;DHT22;16223;47.966;-1.616;2022-11-20T01:20:48;6.7;95
29173;DHT22;16223;47.966;-1.616;2022-11-20T01:21:50;6.7;95
29173;DHT22;16223;47.966;-1.616;2022-11-20T01:22:48;6.7;95
29173;DHT22;16223;47.966;-1.616;2022-11-20T01:23:50;6.7;95
29173;DHT22;16223;47.966;-1.616;2022-11-20T01:24:48;6.7;95
29173;DHT22;16223;47.966;-1.616;2022-11-20T01:25:48;6.7;95
29173;DHT22;16223;47.966;-1.616;2022-11-20T01:26:50;6.7;95
29173;DHT22;16223;47.966;-1.616;2022-11-20T01:27:48;6.7;95
29173;DHT22;16223;47.966;-1.616;2022-11-20T01:28:49;6.7;95
29173;DHT22;16223;47.966;-1.616;2022-11-20T01:29:48;6.7;95
29173;DHT22;16223;47.966;-1.616;2022-11-20T01:30:48;6.7;95
29173;DHT22;16223;47.966;-1.616;2022-11-20T01:31:49;6.7;95
29173;DHT22;16223;47.966;-1.616;2022-11-20T01:32:48;6.7;95
29173;DHT22;16223;47.966;-1.616;2022-11-20T01:33:49;6.7;95
29173;DHT22;16223;47.966;-1.616;2022-11-20T01:34:48;6.7;95
29173;DHT22;16223;47.966;-1.616;2022-11-20T01:35:52;6.7;95
29173;DHT22;16223;47.966;-1.616;2022-11-20T01:36:49;6.7;95
29173;DHT22;16223;47.966;-1.616;2022-11-20T01:37:49;6.7;95
29173;DHT22;16223;47.966;-1.616;2022-11-20T01:38:50;6.7;95
29173;DHT22;16223;47.966;-1.616;2022-11-20T01:39:48;6.7;95
29173;DHT22;16223;47.966;-1.616;2022-11-20T01:40:55;6.7;95
29173;DHT22;16223;47.966;-1.616;2022-11-20T01:41:49;6.7;95
29173;DHT22;16223;47.966;-1.616;2022-11-20T01:42:51;6.7;95
29173;DHT22;16223;47.966;-1.616;2022-11-20T01:43:49;6.7;95
29173;DHT22;16223;47.966;-1.616;2022-11-20T01:44:53;6.7;95
29173;DHT22;16223;47.966;-1.616;2022-11-20T01:46:04;6.7;95
29173;DHT22;16223;47.966;-1.616;2022-11-20T01:46:55;6.7;95
29173;DHT22;16223;47.966;-1.616;2022-11-20T01:47:48;6.7;95
29173;DHT22;16223;47.966;-1.616;2022-11-20T01:48:51;6.7;95
29173;DHT22;16223;47.966;-1.616;2022-11-20T01:49:50;6.7;95
29173;DHT22;16223;47.966;-1.616;2022-11-20T01:50:48;6.7;95
29173;DHT22;16223;47.966;-1.616;2022-11-20T01:51:52;6.5;98
29173;DHT22;16223;47.966;-1.616;2022-11-20T01:52:51;6.5;98
29173;DHT22;16223;47.966;-1.616;2022-11-20T01:53:48;6.5;98
29173;DHT22;16223;47.966;-1.616;2022-11-20T01:54:51;6.5;98
29173;DHT22;16223;47.966;-1.616;2022-11-20T01:55:51;6.5;98
29173;DHT22;16223;47.966;-1.616;2022-11-20T01:56:50;6.5;98
29173;DHT22;16223;47.966;-1.616;2022-11-20T01:57:49;6.5;98
29173;DHT22;16223;47.966;-1.616;2022-11-20T01:58:51;6.5;98
29173;DHT22;16223;47.966;-1.616;2022-11-20T01:59:53;6.5;98
29173;DHT22;16223;47.966;-1.616;2022-11-20T02:00:48;6.5;98
29173;DHT22;16223;47.966;-1.616;2022-11-20T02:01:48;6.5;98
29173;DHT22;16223;47.966;-1.616;2022-11-20T02:02:51;6.5;98
29173;DHT22;16223;47.966;-1.616;2022-11-20T02:03:49;6.5;98
29173;DHT22;16223;47.966;-1.616;2022-11-20T02:04:49;6.5;98
29173;DHT22;16223;47.966;-1.616;2022-11-20T02:05:51;6.5;98
29173;DHT22;16223;47.966;-1.616;2022-11-20T02:06:51;6.5;98
29173;DHT22;16223;47.966;-1.616;2022-11-20T02:07:48;6.5;98
29173;DHT22;16223;47.966;-1.616;2022-11-20T02:08:49;6.5;98
29173;DHT22;16223;47.966;-1.616;2022-11-20T02:09:47;6.5;98
29173;DHT22;16223;47.966;-1.616;2022-11-20T02:10:48;6.5;98
29173;DHT22;16223;47.966;-1.616;2022-11-20T02:11:49;6.5;98
29173;DHT22;16223;47.966;-1.616;2022-11-20T02:12:49;6.5;98
29173;DHT22;16223;47.966;-1.616;2022-11-20T02:13:49;6.5;98
29173;DHT22;16223;47.966;-1.616;2022-11-20T02:14:49;6.5;98
29173;DHT22;16223;47.966;-1.616;2022-11-20T02:15:48;6.5;98
29173;DHT22;16223;47.966;-1.616;2022-11-20T02:16:49;6.5;98
29173;DHT22;16223;47.966;-1.616;2022-11-20T02:17:49;6.5;98
29173;DHT22;16223;47.966;-1.616;2022-11-20T02:18:48;6.8;99
29173;DHT22;16223;47.966;-1.616;2022-11-20T02:19:48;6.8;99
29173;DHT22;16223;47.966;-1.616;2022-11-20T02:20:53;6.8;99
29173;DHT22;16223;47.966;-1.616;2022-11-20T02:21:54;6.8;99
29173;DHT22;16223;47.966;-1.616;2022-11-20T02:22:53;6.8;99
29173;DHT22;16223;47.966;-1.616;2022-11-20T02:24:06;6.8;99
29173;DHT22;16223;47.966;-1.616;2022-11-20T02:24:48;6.8;99
29173;DHT22;16223;47.966;-1.616;2022-11-20T02:25:48;6.8;99
29173;DHT22;16223;47.966;-1.616;2022-11-20T02:26:52;6.8;99
29173;DHT22;16223;47.966;-1.616;2022-11-20T02:27:48;6.8;99
29173;DHT22;16223;47.966;-1.616;2022-11-20T02:28:48;6.8;99
29173;DHT22;16223;47.966;-1.616;2022-11-20T02:29:50;6.8;99
29173;DHT22;16223;47.966;-1.616;2022-11-20T02:30:49;6.8;99
29173;DHT22;16223;47.966;-1.616;2022-11-20T02:31:49;6.8;99
29173;DHT22;16223;47.966;-1.616;2022-11-20T02:32:48;6.8;99
29173;DHT22;16223;47.966;-1.616;2022-11-20T02:33:53;6.8;99
29173;DHT22;16223;47.966;-1.616;2022-11-20T02:34:47;6.8;99
29173;DHT22;16223;47.966;-1.616;2022-11-20T02:35:48;6.8;99
29173;DHT22;16223;47.966;-1.616;2022-11-20T02:36:49;6.8;99
29173;DHT22;16223;47.966;-1.616;2022-11-20T02:37:51;6.8;99
29173;DHT22;16223;47.966;-1.616;2022-11-20T02:38:48;6.8;99
29173;DHT22;16223;47.966;-1.616;2022-11-20T02:39:50;6.8;99
29173;DHT22;16223;47.966;-1.616;2022-11-20T02:40:48;6.8;99
29173;DHT22;16223;47.966;-1.616;2022-11-20T02:41:49;6.8;99
29173;DHT22;16223;47.966;-1.616;2022-11-20T02:42:51;6.8;99
29173;DHT22;16223;47.966;-1.616;2022-11-20T02:43:49;6.8;99
29173;DHT22;16223;47.966;-1.616;2022-11-20T02:44:48;6.8;99
29173;DHT22;16223;47.966;-1.616;2022-11-20T02:45:48;6.8;99
29173;DHT22;16223;47.966;-1.616;2022-11-20T02:46:49;6.8;99
29173;DHT22;16223;47.966;-1.616;2022-11-20T02:47:49;6.7;100
29173;DHT22;16223;47.966;-1.616;2022-11-20T02:48:48;6.7;100
29173;DHT22;16223;47.966;-1.616;2022-11-20T02:49:47;6.7;100
29173;DHT22;16223;47.966;-1.616;2022-11-20T02:50:49;6.7;100
29173;DHT22;16223;47.966;-1.616;2022-11-20T02:51:48;6.7;100
29173;DHT22;16223;47.966;-1.616;2022-11-20T02:52:48;6.7;100
29173;DHT22;16223;47.966;-1.616;2022-11-20T02:53:48;6.7;100
29173;DHT22;16223;47.966;-1.616;2022-11-20T02:54:48;6.7;100
29173;DHT22;16223;47.966;-1.616;2022-11-20T02:55:48;6.7;100
29173;DHT22;16223;47.966;-1.616;2022-11-20T02:56:48;6.7;100
29173;DHT22;16223;47.966;-1.616;2022-11-20T02:57:48;6.7;100
29173;DHT22;16223;47.966;-1.616;2022-11-20T02:58:48;6.7;100
29173;DHT22;16223;47.966;-1.616;2022-11-20T02:59:48;6.7;100
29173;DHT22;16223;47.966;-1.616;2022-11-20T03:00:48;6.7;100
29173;DHT22;16223;47.966;-1.616;2022-11-20T03:01:48;6.7;100
29173;DHT22;16223;47.966;-1.616;2022-11-20T03:02:49;6.7;100
29173;DHT22;16223;47.966;-1.616;2022-11-20T03:03:49;6.7;100
29173;DHT22;16223;47.966;-1.616;2022-11-20T03:04:48;6.7;100
29173;DHT22;16223;47.966;-1.616;2022-11-20T03:05:48;6.7;100
29173;DHT22;16223;47.966;-1.616;2022-11-20T03:06:49;6.7;100
29173;DHT22;16223;47.966;-1.616;2022-11-20T03:07:48;6.7;100
29173;DHT22;16223;47.966;-1.616;2022-11-20T03:08:48;6.7;100
29173;DHT22;16223;47.966;-1.616;2022-11-20T03:09:48;6.7;100
29173;DHT22;16223;47.966;-1.616;2022-11-20T03:10:48;6.7;100
29173;DHT22;16223;47.966;-1.616;2022-11-20T03:11:48;6.7;100
29173;DHT22;16223;47.966;-1.616;2022-11-20T03:12:52;6.7;100
29173;DHT22;16223;47.966;-1.616;2022-11-20T03:13:48;6.7;100
29173;DHT22;16223;47.966;-1.616;2022-11-20T03:14:48;6.7;100
29173;DHT22;16223;47.966;-1.616;2022-11-20T03:15:48;6.7;100
29173;DHT22;16223;47.966;-1.616;2022-11-20T03:16:49;6.7;100
29173;DHT22;16223;47.966;-1.616;2022-11-20T03:17:48;6.7;100
29173;DHT22;16223;47.966;-1.616;2022-11-20T03:18:49;6.7;100
29173;DHT22;16223;47.966;-1.616;2022-11-20T03:19:48;6.7;100
29173;DHT22;16223;47.966;-1.616;2022-11-20T03:20:48;6.7;100
29173;DHT22;16223;47.966;-1.616;2022-11-20T03:21:49;6.7;100
29173;DHT22;16223;47.966;-1.616;2022-11-20T03:22:48;6.7;100
29173;DHT22;16223;47.966;-1.616;2022-11-20T03:23:48;6.7;100
29173;DHT22;16223;47.966;-1.616;2022-11-20T03:24:48;6.7;100
29173;DHT22;16223;47.966;-1.616;2022-11-20T03:25:48;6.7;100
29173;DHT22;16223;47.966;-1.616;2022-11-20T03:26:48;6.7;100
29173;DHT22;16223;47.966;-1.616;2022-11-20T03:27:48;6.7;100
29173;DHT22;16223;47.966;-1.616;2022-11-20T03:28:50;6.7;100
29173;DHT22;16223;47.966;-1.616;2022-11-20T03:29:48;6.7;100
29173;DHT22;16223;47.966;-1.616;2022-11-20T03:30:48;6.7;100
29173;DHT22;16223;47.966;-1.616;2022-11-20T03:31:48;6.7;100
29173;DHT22;16223;47.966;-1.616;2022-11-20T03:32:48;6.7;100
29173;DHT22;16223;47.966;-1.616;2022-11-20T03:33:48;6.7;100
29173;DHT22;16223;47.966;-1.616;2022-11-20T03:34:48;6.7;100
29173;DHT22;16223;47.966;-1.616;2022-11-20T03:35:48;6.7;100
29173;DHT22;16223;47.966;-1.616;2022-11-20T03:36:48;6.7;100
29173;DHT22;16223;47.966;-1.616;2022-11-20T03:37:48;6.7;100
29173;DHT22;16223;47.966;-1.616;2022-11-20T03:38:49;6.7;100
29173;DHT22;16223;47.966;-1.616;2022-11-20T03:39:48;6.7;100
29173;DHT22;16223;47.966;-1.616;2022-11-20T03:40:48;6.7;100
29173;DHT22;16223;47.966;-1.616;2022-11-20T03:41:48;6.7;100
29173;DHT22;16223;47.966;-1.616;2022-11-20T03:42:48;6.7;100
29173;DHT22;16223;47.966;-1.616;2022-11-20T03:43:50;6.7;100
29173;DHT22;16223;47.966;-1.616;2022-11-20T03:44:49;6.7;100
29173;DHT22;16223;47.966;-1.616;2022-11-20T03:45:48;6.7;100
29173;DHT22;16223;47.966;-1.616;2022-11-20T03:46:49;6.7;100
29173;DHT22;16223;47.966;-1.616;2022-11-20T03:47:47;7.2;100
29173;DHT22;16223;47.966;-1.616;2022-11-20T03:48:49;7.2;100
29173;DHT22;16223;47.966;-1.616;2022-11-20T03:49:48;7.2;100
29173;DHT22;16223;47.966;-1.616;2022-11-20T03:50:48;7.2;100
29173;DHT22;16223;47.966;-1.616;2022-11-20T03:51:48;7.2;100
29173;DHT22;16223;47.966;-1.616;2022-11-20T03:52:48;7.2;100
29173;DHT22;16223;47.966;-1.616;2022-11-20T03:53:50;7.2;100
29173;DHT22;16223;47.966;-1.616;2022-11-20T03:54:48;7.2;100
29173;DHT22;16223;47.966;-1.616;2022-11-20T03:55:52;7.2;100
29173;DHT22;16223;47.966;-1.616;2022-11-20T03:56:48;7.2;100
29173;DHT22;16223;47.966;-1.616;2022-11-20T03:57:48;7.2;100
29173;DHT22;16223;47.966;-1.616;2022-11-20T03:58:49;7.2;100
29173;DHT22;16223;47.966;-1.616;2022-11-20T03:59:48;7.2;100
29173;DHT22;16223;47.966;-1.616;2022-11-20T04:00:48;7.2;100
29173;DHT22;16223;47.966;-1.616;2022-11-20T04:01:49;7.2;100
29173;DHT22;16223;47.966;-1.616;2022-11-20T04:02:48;7.2;100
29173;DHT22;16223;47.966;-1.616;2022-11-20T04:03:48;7.2;100
29173;DHT22;16223;47.966;-1.616;2022-11-20T04:04:48;7.2;100
29173;DHT22;16223;47.966;-1.616;2022-11-20T04:05:48;7.2;100
29173;DHT22;16223;47.966;-1.616;2022-11-20T04:06:48;7.2;100
29173;DHT22;16223;47.966;-1.616;2022-11-20T04:07:48;7.2;100
29173;DHT22;16223;47.966;-1.616;2022-11-20T04:08:49;7.2;100
29173;DHT22;16223;47.966;-1.616;2022-11-20T04:09:49;7.2;100
29173;DHT22;16223;47.966;-1.616;2022-11-20T04:10:48;7.2;100
29173;DHT22;16223;47.966;-1.616;2022-11-20T04:11:48;7.2;100
29173;DHT22;16223;47.966;-1.616;2022-11-20T04:12:48;7.2;100
29173;DHT22;16223;47.966;-1.616;2022-11-20T04:13:50;7.2;100
29173;DHT22;16223;47.966;-1.616;2022-11-20T04:14:48;7.2;100
29173;DHT22;16223;47.966;-1.616;2022-11-20T04:15:48;7.2;100
29173;DHT22;16223;47.966;-1.616;2022-11-20T04:16:48;7.2;100
29173;DHT22;16223;47.966;-1.616;2022-11-20T04:17:49;7.2;100
29173;DHT22;16223;47.966;-1.616;2022-11-20T04:18:51;7.2;100
29173;DHT22;16223;47.966;-1.616;2022-11-20T04:19:49;7.2;100
29173;DHT22;16223;47.966;-1.616;2022-11-20T04:20:49;7.2;100
29173;DHT22;16223;47.966;-1.616;2022-11-20T04:21:48;7.2;100
29173;DHT22;16223;47.966;-1.616;2022-11-20T04:22:48;7.3;100
29173;DHT22;16223;47.966;-1.616;2022-11-20T04:23:48;7.3;100
29173;DHT22;16223;47.966;-1.616;2022-11-20T04:24:49;7.3;100
29173;DHT22;16223;47.966;-1.616;2022-11-20T04:25:48;7.3;100
29173;DHT22;16223;47.966;-1.616;2022-11-20T04:26:48;7.3;100
29173;DHT22;16223;47.966;-1.616;2022-11-20T04:27:48;7.3;100
29173;DHT22;16223;47.966;-1.616;2022-11-20T04:28:48;7.3;100
29173;DHT22;16223;47.966;-1.616;2022-11-20T04:29:48;7.3;100
29173;DHT22;16223;47.966;-1.616;2022-11-20T04:30:48;7.3;100
29173;DHT22;16223;47.966;-1.616;2022-11-20T04:31:48;7.3;100
29173;DHT22;16223;47.966;-1.616;2022-11-20T04:32:49;7.3;100
29173;DHT22;16223;47.966;-1.616;2022-11-20T04:33:49;7.3;100
29173;DHT22;16223;47.966;-1.616;2022-11-20T04:34:48;7.3;100
29173;DHT22;16223;47.966;-1.616;2022-11-20T04:35:49;7.3;100
29173;DHT22;16223;47.966;-1.616;2022-11-20T04:36:49;7.3;100
29173;DHT22;16223;47.966;-1.616;2022-11-20T04:37:50;7.3;100
29173;DHT22;16223;47.966;-1.616;2022-11-20T04:38:50;7.4;100
29173;DHT22;16223;47.966;-1.616;2022-11-20T04:39:48;7.4;100
29173;DHT22;16223;47.966;-1.616;2022-11-20T04:40:48;7.4;100
29173;DHT22;16223;47.966;-1.616;2022-11-20T04:41:48;7.4;100
29173;DHT22;16223;47.966;-1.616;2022-11-20T04:42:48;7.4;100
29173;DHT22;16223;47.966;-1.616;2022-11-20T04:43:49;7.4;100
29173;DHT22;16223;47.966;-1.616;2022-11-20T04:44:49;7.4;100
29173;DHT22;16223;47.966;-1.616;2022-11-20T04:45:53;7.4;100
29173;DHT22;16223;47.966;-1.616;2022-11-20T04:46:48;7.4;100
29173;DHT22;16223;47.966;-1.616;2022-11-20T04:47:48;7.4;100
29173;DHT22;16223;47.966;-1.616;2022-11-20T04:48:50;7.4;100
29173;DHT22;16223;47.966;-1.616;2022-11-20T04:49:48;7.4;100
29173;DHT22;16223;47.966;-1.616;2022-11-20T04:50:49;7.4;100
29173;DHT22;16223;47.966;-1.616;2022-11-20T04:51:48;7.4;100
29173;DHT22;16223;47.966;-1.616;2022-11-20T04:52:49;7.4;100
29173;DHT22;16223;47.966;-1.616;2022-11-20T04:53:49;7.4;100
29173;DHT22;16223;47.966;-1.616;2022-11-20T04:54:48;7.4;100
29173;DHT22;16223;47.966;-1.616;2022-11-20T04:55:48;7.4;100
29173;DHT22;16223;47.966;-1.616;2022-11-20T04:56:50;7.4;100
29173;DHT22;16223;47.966;-1.616;2022-11-20T04:57:51;7.4;100
29173;DHT22;16223;47.966;-1.616;2022-11-20T04:58:48;7.4;100
29173;DHT22;16223;47.966;-1.616;2022-11-20T04:59:48;7.4;100
29173;DHT22;16223;47.966;-1.616;2022-11-20T05:00:49;7.4;100
29173;DHT22;16223;47.966;-1.616;2022-11-20T05:01:48;7.4;100
29173;DHT22;16223;47.966;-1.616;2022-11-20T05:02:49;7.4;100
29173;DHT22;16223;47.966;-1.616;2022-11-20T05:03:49;7.4;100
29173;DHT22;16223;47.966;-1.616;2022-11-20T05:04:48;7.4;100
29173;DHT22;16223;47.966;-1.616;2022-11-20T05:05:48;7.4;100
29173;DHT22;16223;47.966;-1.616;2022-11-20T05:06:49;7.4;100
29173;DHT22;16223;47.966;-1.616;2022-11-20T05:07:49;7.4;100
29173;DHT22;16223;47.966;-1.616;2022-11-20T05:08:49;7.4;100
29173;DHT22;16223;47.966;-1.616;2022-11-20T05:09:49;7.4;100
29173;DHT22;16223;47.966;-1.616;2022-11-20T05:10:48;7.4;100
29173;DHT22;16223;47.966;-1.616;2022-11-20T05:11:48;7.4;100
29173;DHT22;16223;47.966;-1.616;2022-11-20T05:12:48;7.4;100
29173;DHT22;16223;47.966;-1.616;2022-11-20T05:13:48;7.4;100
29173;DHT22;16223;47.966;-1.616;2022-11-20T05:14:48;7.4;100
29173;DHT22;16223;47.966;-1.616;2022-11-20T05:15:48;7.4;100
29173;DHT22;16223;47.966;-1.616;2022-11-20T05:16:49;7.4;100
29173;DHT22;16223;47.966;-1.616;2022-11-20T05:17:49;7.4;100
29173;DHT22;16223;47.966;-1.616;2022-11-20T05:18:49;7.4;100
29173;DHT22;16223;47.966;-1.616;2022-11-20T05:19:49;7.4;100
29173;DHT22;16223;47.966;-1.616;2022-11-20T05:20:54;7.4;100
29173;DHT22;16223;47.966;-1.616;2022-11-20T05:21:49;7.4;100
29173;DHT22;16223;47.966;-1.616;2022-11-20T05:22:48;7.4;100
29173;DHT22;16223;47.966;-1.616;2022-11-20T05:23:49;7.8;100
29173;DHT22;16223;47.966;-1.616;2022-11-20T05:24:48;7.8;100
29173;DHT22;16223;47.966;-1.616;2022-11-20T05:25:51;7.8;100
29173;DHT22;16223;47.966;-1.616;2022-11-20T05:26:48;7.8;100
29173;DHT22;16223;47.966;-1.616;2022-11-20T05:27:48;7.8;100
29173;DHT22;16223;47.966;-1.616;2022-11-20T05:28:48;7.8;100
29173;DHT22;16223;47.966;-1.616;2022-11-20T05:29:49;7.8;100
29173;DHT22;16223;47.966;-1.616;2022-11-20T05:30:48;7.8;100
29173;DHT22;16223;47.966;-1.616;2022-11-20T05:31:49;7.8;100
29173;DHT22;16223;47.966;-1.616;2022-11-20T05:32:49;7.8;100
29173;DHT22;16223;47.966;-1.616;2022-11-20T05:33:48;7.8;100
29173;DHT22;16223;47.966;-1.616;2022-11-20T05:34:48;7.8;100
29173;DHT22;16223;47.966;-1.616;2022-11-20T05:35:48;7.8;100
29173;DHT22;16223;47.966;-1.616;2022-11-20T05:36:48;7.8;100
29173;DHT22;16223;47.966;-1.616;2022-11-20T05:37:49;8.1;100
29173;DHT22;16223;47.966;-1.616;2022-11-20T05:38:48;8.1;100
29173;DHT22;16223;47.966;-1.616;2022-11-20T05:39:48;8.1;100
29173;DHT22;16223;47.966;-1.616;2022-11-20T05:40:48;8.1;100
29173;DHT22;16223;47.966;-1.616;2022-11-20T05:41:48;8.1;100
29173;DHT22;16223;47.966;-1.616;2022-11-20T05:42:48;8.1;100
29173;DHT22;16223;47.966;-1.616;2022-11-20T05:43:49;8.1;100
29173;DHT22;16223;47.966;-1.616;2022-11-20T05:44:48;8.1;100
29173;DHT22;16223;47.966;-1.616;2022-11-20T05:45:53;8.1;100
29173;DHT22;16223;47.966;-1.616;2022-11-20T05:46:48;8.1;100
29173;DHT22;16223;47.966;-1.616;2022-11-20T05:47:48;8.1;100
29173;DHT22;16223;47.966;-1.616;2022-11-20T05:48:48;8.1;100
29173;DHT22;16223;47.966;-1.616;2022-11-20T05:49:47;8.4;100
29173;DHT22;16223;47.966;-1.616;2022-11-20T05:50:48;8.4;100
29173;DHT22;16223;47.966;-1.616;2022-11-20T05:51:48;8.4;100
29173;DHT22;16223;47.966;-1.616;2022-11-20T05:52:48;8.4;100
29173;DHT22;16223;47.966;-1.616;2022-11-20T05:53:48;8.4;100
29173;DHT22;16223;47.966;-1.616;2022-11-20T05:54:48;8.4;100
29173;DHT22;16223;47.966;-1.616;2022-11-20T05:55:55;8.4;100
29173;DHT22;16223;47.966;-1.616;2022-11-20T05:56:48;8.4;100
29173;DHT22;16223;47.966;-1.616;2022-11-20T05:57:48;8.4;100
29173;DHT22;16223;47.966;-1.616;2022-11-20T05:58:49;8.4;100
29173;DHT22;16223;47.966;-1.616;2022-11-20T05:59:48;8.4;100
29173;DHT22;16223;47.966;-1.616;2022-11-20T06:00:48;8.4;100
29173;DHT22;16223;47.966;-1.616;2022-11-20T06:01:49;8.4;100
29173;DHT22;16223;47.966;-1.616;2022-11-20T06:02:48;8.4;100
29173;DHT22;16223;47.966;-1.616;2022-11-20T06:03:48;8.4;100
29173;DHT22;16223;47.966;-1.616;2022-11-20T06:04:48;8.4;100
29173;DHT22;16223;47.966;-1.616;2022-11-20T06:05:49;8.4;100
29173;DHT22;16223;47.966;-1.616;2022-11-20T06:06:48;8.4;100
29173;DHT22;16223;47.966;-1.616;2022-11-20T06:07:48;8.4;100
29173;DHT22;16223;47.966;-1.616;2022-11-20T06:08:49;8.4;100
29173;DHT22;16223;47.966;-1.616;2022-11-20T06:09:48;8.4;100
29173;DHT22;16223;47.966;-1.616;2022-11-20T06:10:48;8.4;100
29173;DHT22;16223;47.966;-1.616;2022-11-20T06:11:48;8.4;100
29173;DHT22;16223;47.966;-1.616;2022-11-20T06:12:49;8.4;100
29173;DHT22;16223;47.966;-1.616;2022-11-20T06:13:48;8.4;100
29173;DHT22;16223;47.966;-1.616;2022-11-20T06:14:49;8.4;100
29173;DHT22;16223;47.966;-1.616;2022-11-20T06:15:50;8.4;100
29173;DHT22;16223;47.966;-1.616;2022-11-20T06:16:48;8.4;100
29173;DHT22;16223;47.966;-1.616;2022-11-20T06:17:51;8.4;100
29173;DHT22;16223;47.966;-1.616;2022-11-20T06:18:48;8.4;100
29173;DHT22;16223;47.966;-1.616;2022-11-20T06:19:48;8.4;100
29173;DHT22;16223;47.966;-1.616;2022-11-20T06:20:48;8.4;100
29173;DHT22;16223;47.966;-1.616;2022-11-20T06:21:49;8.4;100
29173;DHT22;16223;47.966;-1.616;2022-11-20T06:22:48;8.4;100
29173;DHT22;16223;47.966;-1.616;2022-11-20T06:23:49;8.4;100
29173;DHT22;16223;47.966;-1.616;2022-11-20T06:24:48;8.4;100
29173;DHT22;16223;47.966;-1.616;2022-11-20T06:25:48;8.4;100
29173;DHT22;16223;47.966;-1.616;2022-11-20T06:26:49;8.4;100
29173;DHT22;16223;47.966;-1.616;2022-11-20T06:27:48;8.4;100
29173;DHT22;16223;47.966;-1.616;2022-11-20T06:28:49;8.4;100
29173;DHT22;16223;47.966;-1.616;2022-11-20T06:29:48;8.4;100
29173;DHT22;16223;47.966;-1.616;2022-11-20T06:30:48;8.4;100
29173;DHT22;16223;47.966;-1.616;2022-11-20T06:31:48;8.4;100
29173;DHT22;16223;47.966;-1.616;2022-11-20T06:32:48;8.4;100
29173;DHT22;16223;47.966;-1.616;2022-11-20T06:33:49;8.4;100
29173;DHT22;16223;47.966;-1.616;2022-11-20T06:34:49;8.4;100
29173;DHT22;16223;47.966;-1.616;2022-11-20T06:35:48;8.4;100
29173;DHT22;16223;47.966;-1.616;2022-11-20T06:36:48;8.4;100
29173;DHT22;16223;47.966;-1.616;2022-11-20T06:37:48;8.6;100
29173;DHT22;16223;47.966;-1.616;2022-11-20T06:38:48;8.6;100
29173;DHT22;16223;47.966;-1.616;2022-11-20T06:39:48;8.6;100
29173;DHT22;16223;47.966;-1.616;2022-11-20T06:40:48;8.6;100